createdAt,value
2019-05-26T00:00:06.499Z,931.13
2019-05-26T00:01:06.488Z,931.14
2019-05-26T00:02:06.473Z,931.12
2019-05-26T00:03:06.443Z,931.16
2019-05-26T00:04:06.417Z,931.12
2019-05-26T00:05:06.400Z,931.13
2019-05-26T00:06:06.377Z,931.17
2019-05-26T00:07:06.348Z,931.11
2019-05-26T00:08:06.321Z,931.10
2019-05-26T00:09:06.280Z,931.11
2019-05-26T00:10:06.393Z,931.19
2019-05-26T00:11:06.236Z,931.13
2019-05-26T00:12:06.209Z,931.16
2019-05-26T00:13:06.201Z,931.18
2019-05-26T00:14:06.161Z,931.13
2019-05-26T00:15:06.152Z,931.16
2019-05-26T00:16:06.128Z,931.15
2019-05-26T00:17:06.103Z,931.15
2019-05-26T00:18:06.082Z,931.15
2019-05-26T00:19:06.055Z,931.18
2019-05-26T00:20:06.028Z,931.18
2019-05-26T00:21:06.002Z,931.14
2019-05-26T00:22:05.979Z,931.13
2019-05-26T00:23:05.965Z,931.13
2019-05-26T00:24:05.939Z,931.14
2019-05-26T00:25:05.906Z,931.17
2019-05-26T00:26:05.867Z,931.16
2019-05-26T00:27:05.860Z,931.16
2019-05-26T00:28:05.841Z,931.15
2019-05-26T00:29:05.808Z,931.15
2019-05-26T00:30:05.786Z,931.16
2019-05-26T00:31:05.762Z,931.16
2019-05-26T00:32:05.738Z,931.18
2019-05-26T00:33:05.719Z,931.12
2019-05-26T00:34:05.694Z,931.12
2019-05-26T00:35:05.669Z,931.07
2019-05-26T00:36:05.634Z,931.14
2019-05-26T00:37:05.613Z,931.18
2019-05-26T00:38:05.599Z,931.19
2019-05-26T00:39:05.562Z,931.16
2019-05-26T00:40:05.542Z,931.19
2019-05-26T00:41:05.522Z,931.20
2019-05-26T00:42:05.500Z,931.22
2019-05-26T00:43:05.472Z,931.16
2019-05-26T00:44:05.452Z,931.17
2019-05-26T00:45:05.425Z,931.16
2019-05-26T00:46:05.373Z,931.18
2019-05-26T00:47:05.374Z,931.17
2019-05-26T00:48:05.328Z,931.16
2019-05-26T00:49:05.328Z,931.17
2019-05-26T00:50:05.294Z,931.16
2019-05-26T00:51:05.277Z,931.21
2019-05-26T00:52:05.247Z,931.18
2019-05-26T00:53:05.228Z,931.15
2019-05-26T00:54:05.195Z,931.12
2019-05-26T00:55:05.182Z,931.13
2019-05-26T00:56:05.150Z,931.14
2019-05-26T00:57:05.120Z,931.10
2019-05-26T00:58:05.102Z,931.06
2019-05-26T00:59:05.072Z,931.05
2019-05-26T01:00:05.050Z,931.05
2019-05-26T01:01:05.028Z,931.09
2019-05-26T01:02:05.003Z,931.02
2019-05-26T01:03:04.978Z,931.00
2019-05-26T01:04:04.953Z,931.01
2019-05-26T01:05:04.942Z,931.01
2019-05-26T01:06:04.903Z,931.01
2019-05-26T01:07:04.881Z,930.99
2019-05-26T01:08:06.624Z,930.98
2019-05-26T01:09:04.812Z,931.00
2019-05-26T01:10:04.795Z,930.97
2019-05-26T01:11:04.775Z,930.95
2019-05-26T01:12:04.748Z,930.99
2019-05-26T01:13:04.736Z,930.99
2019-05-26T01:14:04.707Z,931.00
2019-05-26T01:15:04.705Z,931.01
2019-05-26T01:16:04.653Z,931.02
2019-05-26T01:17:04.621Z,931.01
2019-05-26T01:18:04.598Z,931.02
2019-05-26T01:19:04.560Z,931.03
2019-05-26T01:20:04.568Z,931.04
2019-05-26T01:21:04.524Z,931.03
2019-05-26T01:22:04.503Z,931.05
2019-05-26T01:23:04.475Z,931.04
2019-05-26T01:24:04.749Z,931.03
2019-05-26T01:25:04.409Z,931.01
2019-05-26T01:26:04.401Z,930.98
2019-05-26T01:27:04.381Z,930.99
2019-05-26T01:28:04.356Z,931.02
2019-05-26T01:29:04.325Z,930.98
2019-05-26T01:30:04.298Z,931.03
2019-05-26T01:31:04.277Z,930.99
2019-05-26T01:32:04.251Z,931.02
2019-05-26T01:33:04.227Z,931.06
2019-05-26T01:34:04.188Z,931.04
2019-05-26T01:35:04.161Z,931.02
2019-05-26T01:36:04.151Z,931.09
2019-05-26T01:37:04.126Z,931.15
2019-05-26T01:38:04.108Z,931.20
2019-05-26T01:39:04.074Z,931.19
2019-05-26T01:40:04.047Z,931.13
2019-05-26T01:41:04.029Z,931.15
2019-05-26T01:42:04.002Z,931.15
2019-05-26T01:43:04.003Z,931.16
2019-05-26T01:44:03.951Z,931.12
2019-05-26T01:45:03.925Z,931.16
2019-05-26T01:46:03.900Z,931.18
2019-05-26T01:47:03.875Z,931.15
2019-05-26T01:48:03.855Z,931.22
2019-05-26T01:49:03.809Z,931.23
2019-05-26T01:50:03.806Z,931.21
2019-05-26T01:51:03.781Z,931.20
2019-05-26T01:52:03.730Z,931.15
2019-05-26T01:53:03.733Z,931.17
2019-05-26T01:54:03.700Z,931.15
2019-05-26T01:55:03.685Z,931.10
2019-05-26T01:56:03.655Z,931.12
2019-05-26T01:57:03.631Z,931.16
2019-05-26T01:58:03.611Z,931.15
2019-05-26T01:59:03.583Z,931.13
2019-05-26T02:00:03.559Z,931.14
2019-05-26T02:01:03.536Z,931.13
2019-05-26T02:02:03.502Z,931.15
2019-05-26T02:03:03.512Z,931.15
2019-05-26T02:04:03.484Z,931.14
2019-05-26T02:05:03.415Z,931.16
2019-05-26T02:06:03.413Z,931.09
2019-05-26T02:07:03.382Z,931.09
2019-05-26T02:08:03.356Z,931.16
2019-05-26T02:09:03.335Z,931.14
2019-05-26T02:10:03.316Z,931.15
2019-05-26T02:11:03.287Z,931.20
2019-05-26T02:12:03.273Z,931.18
2019-05-26T02:13:03.250Z,931.15
2019-05-26T02:14:03.193Z,931.16
2019-05-26T02:15:03.365Z,931.15
2019-05-26T02:16:03.163Z,931.14
2019-05-26T02:17:03.144Z,931.16
2019-05-26T02:18:03.118Z,931.16
2019-05-26T02:19:03.080Z,931.20
2019-05-26T02:20:03.066Z,931.18
2019-05-26T02:21:03.044Z,931.16
2019-05-26T02:22:03.015Z,931.16
2019-05-26T02:23:03.005Z,931.14
2019-05-26T02:24:02.968Z,931.16
2019-05-26T02:25:02.943Z,931.16
2019-05-26T02:26:02.922Z,931.14
2019-05-26T02:27:02.877Z,931.18
2019-05-26T02:28:02.855Z,931.12
2019-05-26T02:29:02.853Z,931.16
2019-05-26T02:30:02.829Z,931.14
2019-05-26T02:31:02.799Z,931.16
2019-05-26T02:32:02.777Z,931.18
2019-05-26T02:33:02.760Z,931.21
2019-05-26T02:34:02.709Z,931.22
2019-05-26T02:35:02.704Z,931.28
2019-05-26T02:36:02.664Z,931.21
2019-05-26T02:37:02.660Z,931.21
2019-05-26T02:38:02.626Z,931.23
2019-05-26T02:39:03.456Z,931.23
2019-05-26T02:40:02.585Z,931.18
2019-05-26T02:41:02.563Z,931.21
2019-05-26T02:42:02.582Z,931.18
2019-05-26T02:43:02.583Z,931.23
2019-05-26T02:44:02.485Z,931.19
2019-05-26T02:45:02.460Z,931.22
2019-05-26T02:46:02.436Z,931.18
2019-05-26T02:47:02.414Z,931.18
2019-05-26T02:48:02.508Z,931.14
2019-05-26T02:49:02.367Z,931.16
2019-05-26T02:50:02.347Z,931.16
2019-05-26T02:51:02.298Z,931.14
2019-05-26T02:52:02.273Z,931.13
2019-05-26T02:53:02.272Z,931.11
2019-05-26T02:54:02.239Z,931.09
2019-05-26T02:55:02.222Z,931.08
2019-05-26T02:56:02.202Z,931.11
2019-05-26T02:57:02.164Z,931.13
2019-05-26T02:58:02.145Z,931.11
2019-05-26T02:59:02.120Z,931.11
2019-05-26T03:00:02.082Z,931.10
2019-05-26T03:01:02.067Z,931.08
2019-05-26T03:02:04.572Z,931.10
2019-05-26T03:03:02.031Z,931.07
2019-05-26T03:04:02.002Z,931.05
2019-05-26T03:05:01.984Z,931.05
2019-05-26T03:06:01.954Z,931.03
2019-05-26T03:07:01.920Z,931.02
2019-05-26T03:08:01.903Z,930.98
2019-05-26T03:09:21.095Z,930.98
2019-05-26T03:10:01.867Z,930.94
2019-05-26T03:11:01.896Z,930.94
2019-05-26T03:12:01.803Z,930.97
2019-05-26T03:13:01.769Z,930.97
2019-05-26T03:14:01.731Z,930.95
2019-05-26T03:15:01.727Z,930.84
2019-05-26T03:16:01.689Z,930.94
2019-05-26T03:17:01.685Z,930.97
2019-05-26T03:18:01.654Z,930.97
2019-05-26T03:19:01.635Z,930.95
2019-05-26T03:20:01.616Z,930.97
2019-05-26T03:21:01.591Z,930.95
2019-05-26T03:22:01.558Z,930.94
2019-05-26T03:23:01.535Z,930.91
2019-05-26T03:24:01.518Z,930.92
2019-05-26T03:25:01.483Z,930.90
2019-05-26T03:26:01.445Z,930.90
2019-05-26T03:27:01.433Z,930.90
2019-05-26T03:28:01.392Z,930.89
2019-05-26T03:29:01.387Z,930.89
2019-05-26T03:30:01.371Z,930.87
2019-05-26T03:31:01.343Z,930.82
2019-05-26T03:32:01.325Z,930.82
2019-05-26T03:33:01.297Z,930.81
2019-05-26T03:34:01.355Z,930.85
2019-05-26T03:35:01.295Z,930.81
2019-05-26T03:36:01.228Z,930.82
2019-05-26T03:37:01.201Z,930.81
2019-05-26T03:38:01.169Z,930.79
2019-05-26T03:39:01.148Z,930.80
2019-05-26T03:40:01.172Z,930.79
2019-05-26T03:41:01.102Z,930.78
2019-05-26T03:42:01.078Z,930.76
2019-05-26T03:43:01.049Z,930.75
2019-05-26T03:44:01.024Z,930.76
2019-05-26T03:45:00.997Z,930.75
2019-05-26T03:46:01.008Z,930.74
2019-05-26T03:47:00.937Z,930.75
2019-05-26T03:48:01.165Z,930.79
2019-05-26T03:49:00.912Z,930.76
2019-05-26T03:50:00.881Z,930.77
2019-05-26T03:51:00.854Z,930.76
2019-05-26T03:52:00.811Z,930.76
2019-05-26T03:53:00.808Z,930.77
2019-05-26T03:54:00.790Z,930.75
2019-05-26T03:55:00.754Z,930.79
2019-05-26T03:56:00.732Z,930.82
2019-05-26T03:57:00.708Z,930.81
2019-05-26T03:58:00.685Z,930.83
2019-05-26T04:00:01.366Z,930.81
2019-05-26T04:01:01.117Z,930.77
2019-05-26T04:02:01.522Z,930.71
2019-05-26T04:03:00.560Z,930.71
2019-05-26T04:04:00.545Z,930.75
2019-05-26T04:05:00.625Z,930.71
2019-05-26T04:06:00.470Z,930.71
2019-05-26T04:07:00.476Z,930.75
2019-05-26T04:08:04.243Z,930.71
2019-05-26T04:09:00.420Z,930.69
2019-05-26T04:10:05.564Z,930.70
2019-05-26T04:11:00.361Z,930.66
2019-05-26T04:12:00.320Z,930.69
2019-05-26T04:13:00.318Z,930.71
2019-05-26T04:14:00.273Z,930.69
2019-05-26T04:15:00.249Z,930.67
2019-05-26T04:16:00.240Z,930.64
2019-05-26T04:17:00.217Z,930.67
2019-05-26T04:18:00.196Z,930.66
2019-05-26T04:19:00.163Z,930.60
2019-05-26T04:20:00.143Z,930.62
2019-05-26T04:21:00.118Z,930.65
2019-05-26T04:22:00.109Z,930.66
2019-05-26T04:23:00.081Z,930.59
2019-05-26T04:24:00.058Z,930.61
2019-05-26T04:25:00.004Z,930.60
2019-05-26T04:26:00.000Z,930.61
2019-05-26T04:26:59.972Z,930.57
2019-05-26T04:27:59.944Z,930.60
2019-05-26T04:28:59.897Z,930.57
2019-05-26T04:29:59.899Z,930.56
2019-05-26T04:30:59.877Z,930.60
2019-05-26T04:32:02.130Z,930.60
2019-05-26T04:32:59.819Z,930.55
2019-05-26T04:33:59.821Z,930.60
2019-05-26T04:34:59.773Z,930.61
2019-05-26T04:35:59.750Z,930.61
2019-05-26T04:36:59.717Z,930.64
2019-05-26T04:37:59.719Z,930.61
2019-05-26T04:38:59.679Z,930.61
2019-05-26T04:39:59.656Z,930.61
2019-05-26T04:40:59.623Z,930.61
2019-05-26T04:41:59.595Z,930.65
2019-05-26T04:42:59.575Z,930.65
2019-05-26T04:43:59.658Z,930.63
2019-05-26T04:44:59.522Z,930.62
2019-05-26T04:45:59.501Z,930.56
2019-05-26T04:46:59.521Z,930.60
2019-05-26T04:47:59.449Z,930.56
2019-05-26T04:48:59.425Z,930.51
2019-05-26T04:49:59.402Z,930.55
2019-05-26T04:50:59.374Z,930.46
2019-05-26T04:51:59.335Z,930.48
2019-05-26T04:53:05.916Z,930.47
2019-05-26T04:53:59.310Z,930.47
2019-05-26T04:54:59.273Z,930.45
2019-05-26T04:55:59.234Z,930.43
2019-05-26T04:56:59.206Z,930.41
2019-05-26T04:57:59.179Z,930.39
2019-05-26T04:58:59.165Z,930.42
2019-05-26T04:59:59.136Z,930.38
2019-05-26T05:00:59.134Z,930.30
2019-05-26T05:01:59.105Z,930.29
2019-05-26T05:02:59.083Z,930.27
2019-05-26T05:03:59.058Z,930.30
2019-05-26T05:04:59.024Z,930.28
2019-05-26T05:05:59.020Z,930.32
2019-05-26T05:06:58.994Z,930.33
2019-05-26T05:07:58.961Z,930.35
2019-05-26T05:08:58.930Z,930.35
2019-05-26T05:09:58.908Z,930.34
2019-05-26T05:10:58.883Z,930.36
2019-05-26T05:11:58.851Z,930.37
2019-05-26T05:12:59.107Z,930.35
2019-05-26T05:13:58.807Z,930.37
2019-05-26T05:14:58.776Z,930.36
2019-05-26T05:15:58.780Z,930.38
2019-05-26T05:16:58.736Z,930.36
2019-05-26T05:17:58.710Z,930.33
2019-05-26T05:18:58.675Z,930.33
2019-05-26T05:19:58.664Z,930.30
2019-05-26T05:20:58.619Z,930.31
2019-05-26T05:21:58.586Z,930.31
2019-05-26T05:22:58.562Z,930.30
2019-05-26T05:23:58.533Z,930.28
2019-05-26T05:24:58.536Z,930.27
2019-05-26T05:25:58.508Z,930.25
2019-05-26T05:26:58.485Z,930.22
2019-05-26T05:27:58.444Z,930.17
2019-05-26T05:28:58.430Z,930.15
2019-05-26T05:29:58.402Z,930.18
2019-05-26T05:30:58.381Z,930.19
2019-05-26T05:31:58.359Z,930.21
2019-05-26T05:32:58.330Z,930.19
2019-05-26T05:33:58.304Z,930.21
2019-05-26T05:34:58.292Z,930.18
2019-05-26T05:35:58.269Z,930.18
2019-05-26T05:36:58.243Z,930.19
2019-05-26T05:37:58.212Z,930.17
2019-05-26T05:38:58.165Z,930.15
2019-05-26T05:39:58.156Z,930.18
2019-05-26T05:41:00.037Z,930.17
2019-05-26T05:41:58.112Z,930.16
2019-05-26T05:42:58.093Z,930.17
2019-05-26T05:43:58.060Z,930.12
2019-05-26T05:44:58.037Z,930.10
2019-05-26T05:45:58.017Z,930.09
2019-05-26T05:46:57.988Z,930.05
2019-05-26T05:47:57.968Z,930.07
2019-05-26T05:48:58.211Z,930.08
2019-05-26T05:49:57.897Z,930.05
2019-05-26T05:50:57.871Z,930.11
2019-05-26T05:51:57.863Z,930.09
2019-05-26T05:52:57.840Z,930.06
2019-05-26T05:53:57.817Z,930.08
2019-05-26T05:54:57.790Z,930.07
2019-05-26T05:55:57.759Z,930.06
2019-05-26T05:56:57.736Z,930.01
2019-05-26T05:57:57.717Z,930.01
2019-05-26T05:58:57.684Z,930.02
2019-05-26T05:59:57.661Z,930.04
2019-05-26T06:00:57.646Z,930.03
2019-05-26T06:01:57.614Z,930.00
2019-05-26T06:02:57.592Z,930.06
2019-05-26T06:03:57.571Z,930.04
2019-05-26T06:04:57.542Z,930.00
2019-05-26T06:05:57.517Z,930.00
2019-05-26T06:06:57.494Z,930.02
2019-05-26T06:07:57.466Z,929.96
2019-05-26T06:08:57.440Z,929.95
2019-05-26T06:09:57.414Z,929.98
2019-05-26T06:10:57.390Z,930.00
2019-05-26T06:11:57.417Z,929.97
2019-05-26T06:12:57.318Z,929.99
2019-05-26T06:13:57.371Z,929.98
2019-05-26T06:14:57.281Z,929.92
2019-05-26T06:15:57.271Z,929.96
2019-05-26T06:16:57.244Z,929.95
2019-05-26T06:17:57.220Z,929.91
2019-05-26T06:18:57.198Z,929.92
2019-05-26T06:19:57.161Z,929.93
2019-05-26T06:20:57.144Z,929.94
2019-05-26T06:21:57.096Z,929.96
2019-05-26T06:22:57.092Z,929.92
2019-05-26T06:23:57.046Z,929.96
2019-05-26T06:24:57.043Z,929.99
2019-05-26T06:25:57.019Z,930.02
2019-05-26T06:26:56.990Z,929.97
2019-05-26T06:27:56.993Z,929.98
2019-05-26T06:28:56.952Z,929.98
2019-05-26T06:29:59.190Z,930.02
2019-05-26T06:30:56.901Z,930.02
2019-05-26T06:31:57.331Z,929.98
2019-05-26T06:32:56.843Z,930.00
2019-05-26T06:33:56.829Z,929.97
2019-05-26T06:34:56.782Z,930.01
2019-05-26T06:35:57.124Z,929.96
2019-05-26T06:36:56.744Z,929.93
2019-05-26T06:37:56.790Z,929.94
2019-05-26T06:38:56.703Z,929.91
2019-05-26T06:39:56.674Z,929.95
2019-05-26T06:40:56.648Z,929.97
2019-05-26T06:41:56.622Z,929.97
2019-05-26T06:42:56.599Z,929.96
2019-05-26T06:43:56.556Z,929.98
2019-05-26T06:44:56.552Z,929.88
2019-05-26T06:45:56.504Z,929.89
2019-05-26T06:46:56.507Z,929.91
2019-05-26T06:47:56.487Z,929.93
2019-05-26T06:48:56.429Z,929.89
2019-05-26T06:49:56.427Z,929.92
2019-05-26T06:50:56.382Z,929.92
2019-05-26T06:51:56.364Z,929.85
2019-05-26T06:52:56.354Z,929.90
2019-05-26T06:53:56.326Z,929.93
2019-05-26T06:54:56.304Z,929.88
2019-05-26T06:55:56.280Z,929.90
2019-05-26T06:56:56.230Z,929.84
2019-05-26T06:57:56.233Z,929.85
2019-05-26T06:58:56.198Z,929.90
2019-05-26T06:59:56.176Z,929.88
2019-05-26T07:00:56.163Z,929.86
2019-05-26T07:01:56.130Z,929.80
2019-05-26T07:02:56.103Z,929.81
2019-05-26T07:03:56.082Z,929.82
2019-05-26T07:04:56.067Z,929.79
2019-05-26T07:05:56.034Z,929.79
2019-05-26T07:06:56.009Z,929.80
2019-05-26T07:07:55.985Z,929.78
2019-05-26T07:08:55.957Z,929.78
2019-05-26T07:09:55.931Z,929.82
2019-05-26T07:10:55.894Z,929.75
2019-05-26T07:11:59.937Z,929.75
2019-05-26T07:12:55.857Z,929.71
2019-05-26T07:13:55.833Z,929.72
2019-05-26T07:14:55.808Z,929.73
2019-05-26T07:15:55.793Z,929.70
2019-05-26T07:16:55.764Z,929.73
2019-05-26T07:17:55.731Z,929.69
2019-05-26T07:18:55.712Z,929.68
2019-05-26T07:19:55.689Z,929.69
2019-05-26T07:20:55.666Z,929.69
2019-05-26T07:21:55.634Z,929.72
2019-05-26T07:22:55.613Z,929.71
2019-05-26T07:23:55.595Z,929.72
2019-05-26T07:24:55.547Z,929.73
2019-05-26T07:25:55.546Z,929.71
2019-05-26T07:26:55.522Z,929.68
2019-05-26T07:27:55.492Z,929.70
2019-05-26T07:28:55.467Z,929.69
2019-05-26T07:29:55.443Z,929.68
2019-05-26T07:30:55.419Z,929.70
2019-05-26T07:31:55.400Z,929.72
2019-05-26T07:32:55.374Z,929.75
2019-05-26T07:33:55.328Z,929.72
2019-05-26T07:34:55.317Z,929.73
2019-05-26T07:35:55.290Z,929.75
2019-05-26T07:36:55.274Z,929.77
2019-05-26T07:37:55.241Z,929.76
2019-05-26T07:38:55.222Z,929.78
2019-05-26T07:39:55.199Z,929.81
2019-05-26T07:40:55.167Z,929.82
2019-05-26T07:42:09.508Z,929.83
2019-05-26T07:42:55.119Z,929.88
2019-05-26T07:43:55.094Z,929.86
2019-05-26T07:44:55.058Z,929.89
2019-05-26T07:45:55.030Z,929.93
2019-05-26T07:46:55.007Z,929.95
2019-05-26T07:47:54.981Z,929.98
2019-05-26T07:48:54.973Z,929.94
2019-05-26T07:49:54.948Z,929.97
2019-05-26T07:50:54.927Z,929.98
2019-05-26T07:51:54.901Z,930.02
2019-05-26T07:52:54.887Z,930.07
2019-05-26T07:53:56.259Z,930.06
2019-05-26T07:54:54.810Z,930.09
2019-05-26T07:55:54.789Z,930.07
2019-05-26T07:56:54.773Z,930.11
2019-05-26T07:57:54.762Z,930.13
2019-05-26T07:58:54.725Z,930.14
2019-05-26T07:59:54.689Z,930.16
2019-05-26T08:00:54.688Z,930.19
2019-05-26T08:01:54.676Z,930.18
2019-05-26T08:02:54.638Z,930.19
2019-05-26T08:03:54.617Z,930.23
2019-05-26T08:04:54.588Z,930.26
2019-05-26T08:05:54.677Z,930.25
2019-05-26T08:06:54.536Z,930.26
2019-05-26T08:08:09.576Z,930.28
2019-05-26T08:08:54.551Z,930.30
2019-05-26T08:09:54.468Z,930.28
2019-05-26T08:10:54.417Z,930.24
2019-05-26T08:11:54.410Z,930.27
2019-05-26T08:12:54.394Z,930.29
2019-05-26T08:13:54.339Z,930.25
2019-05-26T08:14:54.344Z,930.36
2019-05-26T08:15:54.319Z,930.34
2019-05-26T08:16:54.293Z,930.33
2019-05-26T08:17:54.270Z,930.32
2019-05-26T08:18:54.236Z,930.35
2019-05-26T08:19:54.212Z,930.39
2019-05-26T08:20:54.199Z,930.39
2019-05-26T08:21:54.775Z,930.40
2019-05-26T08:22:54.145Z,930.40
2019-05-26T08:23:54.116Z,930.37
2019-05-26T08:24:54.090Z,930.39
2019-05-26T08:25:54.212Z,930.39
2019-05-26T08:26:54.046Z,930.33
2019-05-26T08:27:54.022Z,930.37
2019-05-26T08:28:53.991Z,930.39
2019-05-26T08:29:53.968Z,930.38
2019-05-26T08:30:53.953Z,930.45
2019-05-26T08:31:53.918Z,930.42
2019-05-26T08:32:53.882Z,930.44
2019-05-26T08:33:53.864Z,930.46
2019-05-26T08:34:53.830Z,930.48
2019-05-26T08:35:53.809Z,930.46
2019-05-26T08:36:53.802Z,930.45
2019-05-26T08:37:53.781Z,930.44
2019-05-26T08:38:53.750Z,930.46
2019-05-26T08:39:53.725Z,930.46
2019-05-26T08:40:53.704Z,930.46
2019-05-26T08:41:53.684Z,930.46
2019-05-26T08:42:53.647Z,930.45
2019-05-26T08:43:53.620Z,930.45
2019-05-26T08:44:53.600Z,930.46
2019-05-26T08:45:53.579Z,930.47
2019-05-26T08:46:53.549Z,930.50
2019-05-26T08:47:53.537Z,930.46
2019-05-26T08:48:53.501Z,930.50
2019-05-26T08:49:53.478Z,930.51
2019-05-26T08:50:53.459Z,930.55
2019-05-26T08:51:53.415Z,930.55
2019-05-26T08:52:53.407Z,930.54
2019-05-26T08:53:53.392Z,930.59
2019-05-26T08:54:53.360Z,930.58
2019-05-26T08:55:53.334Z,930.62
2019-05-26T08:56:53.313Z,930.61
2019-05-26T08:57:53.292Z,930.64
2019-05-26T08:58:53.257Z,930.68
2019-05-26T08:59:53.217Z,930.61
2019-05-26T09:00:53.278Z,930.60
2019-05-26T09:01:53.184Z,930.61
2019-05-26T09:02:53.146Z,930.62
2019-05-26T09:03:53.116Z,930.61
2019-05-26T09:04:53.111Z,930.59
2019-05-26T09:05:53.085Z,930.64
2019-05-26T09:06:53.057Z,930.63
2019-05-26T09:07:53.043Z,930.66
2019-05-26T09:08:53.008Z,930.66
2019-05-26T09:09:52.995Z,930.67
2019-05-26T09:10:52.960Z,930.68
2019-05-26T09:11:52.935Z,930.66
2019-05-26T09:13:00.881Z,930.72
2019-05-26T09:13:52.888Z,930.72
2019-05-26T09:14:52.865Z,930.72
2019-05-26T09:15:52.843Z,930.72
2019-05-26T09:16:52.815Z,930.68
2019-05-26T09:17:52.791Z,930.70
2019-05-26T09:18:52.752Z,930.69
2019-05-26T09:19:52.746Z,930.68
2019-05-26T09:20:52.720Z,930.72
2019-05-26T09:21:52.693Z,930.76
2019-05-26T09:22:52.669Z,930.73
2019-05-26T09:23:52.643Z,930.76
2019-05-26T09:24:52.620Z,930.72
2019-05-26T09:25:52.599Z,930.70
2019-05-26T09:26:52.574Z,930.74
2019-05-26T09:27:52.532Z,930.75
2019-05-26T09:28:52.530Z,930.77
2019-05-26T09:29:52.495Z,930.78
2019-05-26T09:30:52.453Z,930.78
2019-05-26T09:31:52.448Z,930.83
2019-05-26T09:32:52.405Z,930.84
2019-05-26T09:33:52.392Z,930.87
2019-05-26T09:34:52.355Z,930.88
2019-05-26T09:35:52.359Z,930.84
2019-05-26T09:36:52.335Z,930.85
2019-05-26T09:37:52.307Z,930.87
2019-05-26T09:38:52.277Z,930.85
2019-05-26T09:39:52.250Z,930.84
2019-05-26T09:40:52.230Z,930.84
2019-05-26T09:41:52.204Z,930.84
2019-05-26T09:42:52.188Z,930.87
2019-05-26T09:43:52.160Z,930.88
2019-05-26T09:44:52.121Z,930.85
2019-05-26T09:45:52.119Z,930.89
2019-05-26T09:46:52.085Z,930.86
2019-05-26T09:47:52.071Z,930.88
2019-05-26T09:48:52.019Z,930.81
2019-05-26T09:49:52.019Z,930.85
2019-05-26T09:50:51.983Z,930.82
2019-05-26T09:51:52.072Z,930.86
2019-05-26T09:52:51.944Z,930.84
2019-05-26T09:54:01.360Z,930.86
2019-05-26T09:54:51.897Z,930.87
2019-05-26T09:55:51.865Z,930.80
2019-05-26T09:56:51.844Z,930.82
2019-05-26T09:57:51.882Z,930.82
2019-05-26T09:58:51.793Z,930.89
2019-05-26T09:59:51.768Z,930.89
2019-05-26T10:00:51.756Z,930.91
2019-05-26T10:01:51.722Z,930.94
2019-05-26T10:02:51.693Z,930.99
2019-05-26T10:03:51.672Z,930.99
2019-05-26T10:04:51.643Z,930.96
2019-05-26T10:05:51.647Z,930.98
2019-05-26T10:06:51.602Z,930.96
2019-05-26T10:07:51.578Z,930.98
2019-05-26T10:08:51.550Z,931.02
2019-05-26T10:09:51.529Z,931.04
2019-05-26T10:10:51.499Z,931.03
2019-05-26T10:11:51.493Z,931.07
2019-05-26T10:12:51.449Z,931.05
2019-05-26T10:13:51.423Z,931.07
2019-05-26T10:14:51.406Z,931.07
2019-05-26T10:15:51.382Z,931.08
2019-05-26T10:16:51.338Z,931.12
2019-05-26T10:17:51.308Z,931.11
2019-05-26T10:18:51.289Z,931.14
2019-05-26T10:19:51.264Z,931.17
2019-05-26T10:20:51.255Z,931.18
2019-05-26T10:21:51.251Z,931.16
2019-05-26T10:22:51.227Z,931.20
2019-05-26T10:23:53.201Z,931.19
2019-05-26T10:24:51.165Z,931.23
2019-05-26T10:25:51.171Z,931.23
2019-05-26T10:26:51.116Z,931.21
2019-05-26T10:27:51.079Z,931.28
2019-05-26T10:28:51.068Z,931.27
2019-05-26T10:29:51.045Z,931.28
2019-05-26T10:30:51.019Z,931.28
2019-05-26T10:31:50.992Z,931.26
2019-05-26T10:32:50.963Z,931.33
2019-05-26T10:33:50.932Z,931.32
2019-05-26T10:34:50.930Z,931.30
2019-05-26T10:35:50.884Z,931.33
2019-05-26T10:36:50.874Z,931.36
2019-05-26T10:37:50.856Z,931.36
2019-05-26T10:38:50.829Z,931.42
2019-05-26T10:39:50.808Z,931.58
2019-05-26T10:40:50.764Z,931.45
2019-05-26T10:41:51.023Z,931.43
2019-05-26T10:42:50.738Z,931.43
2019-05-26T10:43:50.714Z,931.36
2019-05-26T10:44:50.694Z,931.42
2019-05-26T10:45:50.665Z,931.42
2019-05-26T10:46:50.645Z,931.41
2019-05-26T10:47:50.620Z,931.38
2019-05-26T10:48:50.585Z,931.37
2019-05-26T10:49:50.581Z,931.40
2019-05-26T10:50:50.554Z,931.42
2019-05-26T10:51:50.536Z,931.36
2019-05-26T10:52:50.499Z,931.40
2019-05-26T10:53:50.496Z,931.44
2019-05-26T10:54:50.477Z,931.47
2019-05-26T10:55:50.423Z,931.47
2019-05-26T10:56:50.425Z,931.45
2019-05-26T10:57:50.398Z,931.47
2019-05-26T10:58:50.385Z,931.50
2019-05-26T10:59:50.354Z,931.49
2019-05-26T11:00:50.335Z,931.48
2019-05-26T11:01:50.311Z,931.44
2019-05-26T11:02:50.285Z,931.40
2019-05-26T11:03:50.264Z,931.46
2019-05-26T11:04:50.240Z,931.49
2019-05-26T11:05:50.213Z,931.48
2019-05-26T11:06:50.192Z,931.46
2019-05-26T11:07:50.172Z,931.44
2019-05-26T11:08:50.157Z,931.49
2019-05-26T11:09:50.108Z,931.50
2019-05-26T11:10:50.162Z,931.56
2019-05-26T11:11:50.083Z,931.54
2019-05-26T11:12:50.063Z,931.59
2019-05-26T11:14:02.272Z,931.64
2019-05-26T11:14:50.014Z,931.67
2019-05-26T11:15:49.998Z,931.61
2019-05-26T11:16:49.980Z,931.67
2019-05-26T11:17:49.955Z,931.74
2019-05-26T11:18:49.934Z,931.72
2019-05-26T11:19:49.905Z,931.77
2019-05-26T11:20:49.885Z,931.81
2019-05-26T11:21:49.867Z,931.83
2019-05-26T11:22:49.841Z,931.84
2019-05-26T11:23:49.822Z,931.89
2019-05-26T11:24:49.778Z,931.89
2019-05-26T11:25:49.758Z,931.86
2019-05-26T11:26:49.783Z,931.94
2019-05-26T11:27:49.715Z,931.86
2019-05-26T11:28:49.707Z,931.92
2019-05-26T11:29:49.700Z,931.97
2019-05-26T11:30:49.678Z,932.00
2019-05-26T11:31:49.642Z,932.03
2019-05-26T11:32:49.621Z,932.04
2019-05-26T11:33:49.604Z,932.07
2019-05-26T11:35:01.039Z,932.12
2019-05-26T11:35:49.540Z,932.21
2019-05-26T11:36:49.534Z,932.12
2019-05-26T11:37:49.519Z,932.22
2019-05-26T11:38:49.493Z,932.23
2019-05-26T11:39:49.473Z,932.21
2019-05-26T11:40:49.511Z,932.17
2019-05-26T11:41:54.882Z,932.16
2019-05-26T11:42:49.412Z,932.15
2019-05-26T11:43:49.388Z,932.16
2019-05-26T11:44:49.372Z,932.14
2019-05-26T11:45:49.350Z,932.21
2019-05-26T11:46:49.333Z,932.29
2019-05-26T11:47:49.311Z,932.22
2019-05-26T11:48:49.292Z,932.26
2019-05-26T11:49:49.246Z,932.22
2019-05-26T11:50:49.248Z,932.18
2019-05-26T11:51:49.211Z,932.20
2019-05-26T11:52:49.187Z,932.28
2019-05-26T11:53:49.187Z,932.29
2019-05-26T11:54:49.143Z,932.23
2019-05-26T11:55:49.128Z,932.23
2019-05-26T11:56:49.127Z,932.33
2019-05-26T11:57:49.103Z,932.37
2019-05-26T11:58:49.085Z,932.26
2019-05-26T11:59:49.084Z,932.72
2019-05-26T12:00:49.042Z,932.31
2019-05-26T12:01:49.026Z,932.16
2019-05-26T12:02:49.004Z,932.21
2019-05-26T12:03:48.965Z,932.18
2019-05-26T12:04:48.967Z,932.26
2019-05-26T12:05:48.946Z,932.28
2019-05-26T12:06:48.927Z,932.81
2019-05-26T12:07:48.904Z,932.33
2019-05-26T12:08:48.868Z,932.24
2019-05-26T12:09:48.850Z,932.30
2019-05-26T12:10:48.851Z,932.75
2019-05-26T12:11:48.829Z,932.85
2019-05-26T12:12:48.807Z,932.43
2019-05-26T12:13:48.799Z,932.47
2019-05-26T12:14:48.773Z,932.35
2019-05-26T12:15:48.754Z,932.82
2019-05-26T12:16:48.733Z,932.79
2019-05-26T12:17:48.696Z,932.87
2019-05-26T12:18:48.798Z,932.75
2019-05-26T12:19:48.653Z,932.73
2019-05-26T12:20:48.655Z,932.70
2019-05-26T12:21:48.659Z,932.30
2019-05-26T12:22:48.630Z,932.33
2019-05-26T12:23:48.607Z,932.27
2019-05-26T12:24:48.590Z,932.38
2019-05-26T12:25:48.571Z,932.26
2019-05-26T12:26:48.529Z,932.24
2019-05-26T12:27:48.524Z,932.22
2019-05-26T12:28:48.493Z,932.27